Time;durP1;ratioP1;P1;durP2;ratioP2;P2;SDS_P1;SDS_P2;PMS_P1;PMS_P2;Temp;Humidity;BMP_temperature;BMP_pressure;BME280_temperature;BME280_humidity;BME280_pressure;Samples;Min_cycle;Max_cycle;Signal;HPM_P1;HPM_P2
2022/08/17 00:03:56;;;;;;;15.90;9.32;;;;;;;25.10;72.71;99693.41;10129781;29;20098;-69
2022/08/17 00:09:02;;;;;;;17.77;8.70;;;;;;;25.22;74.47;99727.34;10130152;29;20523;-69
2022/08/17 00:14:07;;;;;;;24.88;9.52;;;;;;;25.23;74.52;99725.44;10129348;29;20059;-69
2022/08/17 00:19:10;;;;;;;12.15;8.45;;;;;;;25.22;74.18;99727.34;10128778;29;20040;-69
2022/08/17 00:24:11;;;;;;;;;;;;;;;25.34;72.22;99735.19;10127825;29;20132;-69
2022/08/17 00:29:13;;;;;;;17.60;9.05;;;;;;;24.59;74.45;99672.72;10128453;29;20319;-69
2022/08/17 00:34:13;;;;;;;25.17;10.20;;;;;;;24.70;75.49;99708.78;10129232;29;20044;-69
2022/08/17 00:39:14;;;;;;;25.90;9.80;;;;;;;24.85;75.36;99738.63;10128809;29;20431;-69
2022/08/17 00:44:15;;;;;;;19.17;9.48;;;;;;;24.71;76.11;99710.41;10128560;29;20044;-69
2022/08/17 00:49:22;;;;;;;17.15;9.18;;;;;;;24.63;76.38;99698.22;10128997;29;20080;-69
2022/08/17 00:54:27;;;;;;;26.38;9.82;;;;;;;24.78;76.66;99716.38;10127921;29;20051;-70
2022/08/17 00:59:34;;;;;;;18.92;9.05;;;;;;;24.28;76.82;99642.09;10127933;29;20052;-69
2022/08/17 01:04:35;;;;;;;20.85;9.02;;;;;;;23.11;75.92;99489.31;10127663;29;20075;-69
2022/08/17 01:09:36;;;;;;;21.17;9.57;;;;;;;24.23;76.03;99653.78;10127468;29;20099;-69
2022/08/17 01:14:38;;;;;;;62.63;11.25;;;;;;;24.64;76.73;99743.28;10127830;29;20043;-69
2022/08/17 01:19:41;;;;;;;73.35;12.27;;;;;;;24.62;76.98;99733.78;10126779;29;20041;-70
2022/08/17 01:24:52;;;;;;;47.75;10.00;;;;;;;24.58;77.59;99728.09;10127946;29;20040;-69
2022/08/17 01:29:57;;;;;;;65.03;12.07;;;;;;;24.50;77.61;99742.22;10127298;29;20079;-69
2022/08/17 01:34:59;;;;;;;51.15;11.88;;;;;;;23.96;77.22;99662.25;10130119;29;20041;-69
2022/08/17 01:40:29;;;;;;;78.20;12.98;;;;;;;24.56;78.55;99749.28;10133659;29;20061;-69
2022/08/17 01:45:37;;;;;;;87.72;13.57;;;;;;;24.37;78.06;99738.16;10135199;29;20123;-69
2022/08/17 01:50:41;;;;;;;56.42;12.02;;;;;;;24.10;78.13;99704.00;10148219;29;20389;-69
2022/08/17 01:55:55;;;;;;;63.58;13.38;;;;;;;24.26;79.15;99753.66;10134183;29;20048;-69
2022/08/17 02:00:56;;;;;;;89.28;14.00;;;;;;;23.73;78.02;99679.88;10132305;29;20048;-69
2022/08/17 02:05:57;;;;;;;141.93;18.98;;;;;;;24.03;78.75;99751.50;10147741;29;20417;-70
2022/08/17 02:10:58;;;;;;;293.65;28.67;;;;;;;23.78;78.84;99712.44;10133547;29;20052;-69
2022/08/17 02:16:00;;;;;;;45.83;10.63;;;;;;;24.09;78.79;99780.25;10132585;29;20128;-69
2022/08/17 02:21:01;;;;;;;45.63;11.43;;;;;;;24.10;79.37;99779.16;10132790;29;20567;-69
2022/08/17 02:26:02;;;;;;;326.80;29.20;;;;;;;23.94;79.32;99745.81;10132235;29;20044;-69
2022/08/17 02:31:08;;;;;;;118.50;16.63;;;;;;;24.20;80.60;99786.47;10132603;29;20450;-69
2022/08/17 02:36:11;;;;;;;55.42;11.27;;;;;;;24.08;79.42;99746.91;10132180;29;20048;-69
2022/08/17 02:41:12;;;;;;;32.92;10.77;;;;;;;24.40;78.85;99780.25;10131647;29;20052;-70
2022/08/17 02:46:13;;;;;;;264.63;22.50;;;;;;;23.92;78.85;99709.97;10131166;29;20135;-69
2022/08/17 02:51:13;;;;;;;85.32;14.05;;;;;;;24.36;78.99;99764.50;10131349;29;20560;-69
2022/08/17 02:56:15;;;;;;;18.27;9.68;;;;;;;24.56;78.59;99773.72;10131560;29;20041;-69
2022/08/17 03:01:16;;;;;;;21.27;9.95;;;;;;;24.80;77.88;99776.69;10130943;29;20053;-69
2022/08/17 03:06:16;;;;;;;18.15;9.43;;;;;;;24.46;77.04;99720.25;10131472;29;20044;-69
2022/08/17 03:11:17;;;;;;;22.90;8.80;;;;;;;24.87;77.03;99776.38;10131438;29;20444;-69
2022/08/17 03:16:18;;;;;;;21.77;9.10;;;;;;;25.19;76.27;99782.28;10131119;29;20128;-69
2022/08/17 03:21:19;;;;;;;22.20;8.00;;;;;;;25.48;74.96;99776.94;10130435;29;20048;-69
2022/08/17 03:26:20;;;;;;;20.50;8.55;;;;;;;25.87;74.13;99781.63;10130308;28;20071;-69
2022/08/17 03:31:20;;;;;;;17.35;7.43;;;;;;;25.54;72.55;99652.63;10129820;28;20049;-69
2022/08/17 03:36:22;;;;;;;56.35;9.52;;;;;;;26.62;69.97;99699.56;10129842;29;20036;-70
2022/08/17 03:41:23;;;;;;;21.17;7.93;;;;;;;27.44;67.31;99703.16;10130181;29;20139;-69
2022/08/17 03:57:06;;;;;;;12.35;6.75;;;;;;;30.36;59.07;99775.53;10129740;29;20123;-70
2022/08/17 04:02:20;;;;;;;15.35;6.75;;;;;;;31.06;56.12;99784.09;10129869;29;20041;-69
2022/08/17 04:07:23;;;;;;;19.77;6.68;;;;;;;31.34;56.19;99779.97;10130153;29;20045;-70
2022/08/17 04:12:29;;;;;;;12.30;6.22;;;;;;;31.43;55.29;99769.03;10129692;29;20056;-70
2022/08/17 04:17:30;;;;;;;15.35;6.53;;;;;;;32.07;54.42;99773.91;10129612;29;20036;-70
2022/08/17 04:22:30;;;;;;;11.50;6.25;;;;;;;32.20;52.99;99761.09;10127587;29;20091;-71
2022/08/17 04:27:31;;;;;;;12.82;6.28;;;;;;;32.54;52.60;99757.47;10126957;28;20048;-70
2022/08/17 04:32:48;;;;;;;12.00;6.03;;;;;;;32.88;52.03;99763.97;10129485;28;20041;-69
2022/08/17 04:37:50;;;;;;;22.55;6.65;;;;;;;33.27;51.12;99764.72;10129159;29;20114;-70
2022/08/17 04:43:06;;;;;;;20.87;6.80;;;;;;;33.75;50.20;99760.66;10128239;29;20075;-70
2022/08/17 04:48:06;;;;;;;13.32;7.20;;;;;;;33.63;50.05;99756.72;10128292;29;20044;-71
2022/08/17 04:53:07;;;;;;;15.40;7.18;;;;;;;32.90;50.29;99706.66;10140113;29;20075;-71
2022/08/17 04:58:09;;;;;;;13.65;7.72;;;;;;;32.23;50.83;99691.75;10140010;29;20054;-71
2022/08/17 05:03:10;;;;;;;12.73;7.63;;;;;;;32.14;51.79;99757.72;10141316;29;20040;-69
2022/08/17 05:08:11;;;;;;;17.40;8.18;;;;;;;31.65;53.20;99735.13;10128093;29;20152;-70
2022/08/17 05:13:15;;;;;;;14.15;7.38;;;;;;;31.60;53.46;99746.28;10134442;28;20175;-70
2022/08/17 05:18:16;;;;;;;13.02;7.55;;;;;;;31.55;53.23;99739.00;10135204;29;20457;-70
2022/08/17 05:23:19;;;;;;;17.75;8.10;;;;;;;31.44;53.94;99734.13;10135001;29;20063;-70
2022/08/17 05:28:21;;;;;;;21.25;7.97;;;;;;;31.65;53.69;99745.28;10210112;23;20062;-70
2022/08/17 05:33:25;;;;;;;13.68;7.65;;;;;;;31.84;53.74;99746.56;10379975;28;20046;-72
2022/08/17 05:38:27;;;;;;;19.15;8.20;;;;;;;31.92;53.83;99749.66;10379951;28;20046;-72
2022/08/17 05:43:31;;;;;;;11.82;7.40;;;;;;;32.00;53.24;99740.59;10378970;28;20067;-73
2022/08/17 05:48:40;;;;;;;12.65;7.70;;;;;;;32.09;53.10;99738.66;10378806;28;20041;-71
2022/08/17 05:53:56;;;;;;;36.45;9.45;;;;;;;32.37;53.44;99730.00;10379030;28;20148;-71
2022/08/17 05:59:20;;;;;;;25.98;12.35;;;;;;;32.04;52.71;99643.47;10378305;28;20502;-71
2022/08/17 06:05:00;;;;;;;20.00;8.05;;;;;;;32.63;51.56;99696.94;10378075;28;20621;-71
2022/08/17 06:10:13;;;;;;;22.27;7.70;;;;;;;32.68;51.49;99722.31;10369887;28;20046;-70
2022/08/17 06:15:29;;;;;;;17.85;7.60;;;;;;;32.83;51.07;99717.38;10378196;28;20073;-68
2022/08/17 06:20:43;;;;;;;17.38;7.57;;;;;;;32.97;50.17;99701.44;10378446;28;20053;-69
2022/08/17 06:25:48;;;;;;;77.78;11.18;;;;;;;32.98;50.21;99692.06;10378823;28;20500;-71
2022/08/17 06:30:57;;;;;;;19.52;8.23;;;;;;;33.17;48.77;99684.16;10377757;28;20061;-68
2022/08/17 06:36:02;;;;;;;16.25;7.50;;;;;;;33.36;47.75;99718.69;10376922;28;20045;-72
2022/08/17 06:41:56;;;;;;;16.67;7.32;;;;;;;32.94;47.69;99598.38;10376742;28;20050;-69
2022/08/17 06:47:07;;;;;;;14.40;7.07;;;;;;;33.24;47.52;99631.34;10340411;28;20046;-72
2022/08/17 06:52:28;;;;;;;15.85;7.60;;;;;;;33.71;47.25;99682.59;10377157;28;20042;-71
2022/08/17 06:57:32;;;;;;;16.35;7.45;;;;;;;33.60;46.20;99641.72;10376354;28;20041;-74
2022/08/17 07:02:35;;;;;;;19.85;7.65;;;;;;;34.10;45.95;99681.22;10376596;28;20406;-70
2022/08/17 07:13:30;;;;;;;26.88;7.88;;;;;;;34.34;44.97;99674.94;10375970;28;20045;-68
2022/08/17 07:18:32;;;;;;;18.70;7.20;;;;;;;34.45;44.00;99654.03;10375301;28;20410;-71
2022/08/17 07:23:59;;;;;;;12.52;6.35;;;;;;;34.31;43.22;99598.44;10376110;28;20042;-67
2022/08/17 07:29:01;;;;;;;15.75;6.78;;;;;;;34.80;43.06;99653.59;10375350;28;20058;-67
2022/08/17 07:34:13;;;;;;;21.80;7.30;;;;;;;34.65;42.56;99586.13;10374182;28;20528;-69
2022/08/17 07:39:24;;;;;;;;;;;;;;;35.42;43.00;99645.94;10375737;28;20068;-69
2022/08/17 07:44:25;;;;;;;10.88;6.28;;;;;;;35.45;41.94;99645.25;10374874;28;20489;-71
2022/08/17 07:49:36;;;;;;;17.17;6.75;;;;;;;35.66;40.95;99647.84;10373952;28;20050;-70
2022/08/17 07:54:41;;;;;;;17.45;6.65;;;;;;;35.51;39.33;99646.59;10373972;28;20049;-70
2022/08/17 08:00:08;;;;;;;19.77;7.90;;;;;;;35.74;39.36;99629.47;10374325;28;20180;-70
2022/08/17 08:05:19;;;;;;;10.80;6.85;;;;;;;35.35;38.26;99571.19;10374701;28;20053;-67
2022/08/17 08:10:35;;;;;;;15.50;6.63;;;;;;;35.85;38.17;99630.56;10373448;28;20040;-68
2022/08/17 08:15:41;;;;;;;24.30;6.90;;;;;;;35.88;38.25;99613.25;10374306;28;20050;-68
2022/08/17 08:21:16;;;;;;;19.10;6.35;;;;;;;36.04;37.42;99627.09;10372965;28;20057;-70
2022/08/17 08:26:41;;;;;;;20.10;6.18;;;;;;;36.24;36.94;99617.75;10364173;28;20421;-70
2022/08/17 08:31:50;;;;;;;15.90;6.22;;;;;;;36.33;35.64;99610.06;10373554;28;20058;-69
2022/08/17 08:37:03;;;;;;;15.40;6.10;;;;;;;36.49;33.95;99611.97;10373648;28;20050;-71
2022/08/17 08:42:07;;;;;;;34.53;7.25;;;;;;;36.42;34.01;99604.34;10371573;28;20121;-70
2022/08/17 08:47:54;;;;;;;18.73;6.38;;;;;;;36.62;32.04;99596.91;10373218;28;20127;-68
2022/08/17 08:53:17;;;;;;;17.52;6.20;;;;;;;36.79;32.28;99596.47;10372056;28;20501;-70
2022/08/17 08:58:23;;;;;;;13.93;6.28;;;;;;;36.44;32.05;99520.97;10372779;28;20037;-71
2022/08/17 09:04:05;;;;;;;14.82;5.88;;;;;;;36.88;32.16;99576.09;10372362;28;20037;-69
2022/08/17 09:09:41;;;;;;;15.60;6.70;;;;;;;36.58;31.86;99520.53;10350860;28;20085;-70
2022/08/17 09:14:56;;;;;;;14.48;6.65;;;;;;;36.72;33.45;99523.59;10348911;28;20086;-71
2022/08/17 09:20:04;;;;;;;19.00;6.22;;;;;;;36.07;32.84;99427.34;10372014;28;20489;-69
2022/08/17 09:25:14;;;;;;;23.75;6.05;;;;;;;36.89;32.58;99494.69;10372029;28;20038;-71
2022/08/17 09:30:15;;;;;;;16.05;6.00;;;;;;;37.45;32.20;99557.84;10371913;28;20064;-69
2022/08/17 09:35:21;;;;;;;39.97;6.88;;;;;;;37.04;30.78;99477.22;10372226;28;20506;-70
2022/08/17 09:40:38;;;;;;;12.77;5.72;;;;;;;37.74;30.40;99552.84;10371741;28;20449;-68
2022/08/17 09:45:56;;;;;;;15.70;5.97;;;;;;;37.93;30.45;99552.78;10371928;28;20520;-68
2022/08/17 09:51:14;;;;;;;16.95;6.70;;;;;;;37.81;29.93;99495.53;10371165;28;20046;-68
2022/08/17 09:56:22;;;;;;;20.02;6.63;;;;;;;38.27;31.00;99539.06;10376611;28;20042;-71
2022/08/17 10:01:47;;;;;;;19.48;6.85;;;;;;;38.31;30.26;99534.34;10379388;28;20046;-71
2022/08/17 10:06:57;;;;;;;32.13;7.13;;;;;;;38.22;30.64;99542.16;10379074;28;20034;-70
2022/08/17 10:12:15;;;;;;;13.48;5.80;;;;;;;38.47;29.93;99546.13;10378846;28;20164;-70
2022/08/17 10:17:39;;;;;;;16.70;6.03;;;;;;;38.39;30.52;99549.13;10378175;28;20041;-70
2022/08/17 10:28:12;;;;;;;11.77;5.82;;;;;;;38.52;30.66;99511.66;10377776;28;20072;-70
2022/08/17 10:33:26;;;;;;;17.17;6.05;;;;;;;38.63;30.77;99532.03;10378034;28;20037;-71
2022/08/17 10:38:58;;;;;;;17.48;5.63;;;;;;;38.31;31.45;99531.56;10377122;28;20100;-70
2022/08/17 10:43:59;;;;;;;15.20;6.00;;;;;;;37.87;31.73;99541.22;10376474;28;20038;-70
2022/08/17 10:49:19;;;;;;;12.90;6.43;;;;;;;38.14;31.59;99524.59;10376926;28;20038;-70
2022/08/17 10:54:48;;;;;;;14.93;5.93;;;;;;;38.46;31.11;99527.84;10376988;28;20034;-71
2022/08/17 10:59:51;;;;;;;17.38;6.10;;;;;;;38.29;31.68;99531.13;10373010;28;20540;-70
2022/08/17 11:05:00;;;;;;;15.95;6.55;;;;;;;38.14;31.68;99528.19;10375378;28;20052;-71
2022/08/17 11:10:33;;;;;;;13.20;6.03;;;;;;;37.89;31.58;99519.44;10376981;28;20047;-70
2022/08/17 11:15:40;;;;;;;15.60;6.43;;;;;;;37.54;31.47;99516.88;10376079;28;20514;-70
2022/08/17 11:20:47;;;;;;;28.33;6.25;;;;;;;38.01;30.93;99518.47;10375158;28;20490;-71
2022/08/17 11:25:53;;;;;;;12.68;6.10;;;;;;;38.18;30.88;99514.38;10375185;28;20421;-71
2022/08/17 11:30:58;;;;;;;21.10;7.15;;;;;;;37.92;31.73;99504.03;10374793;28;20429;-71
2022/08/17 11:36:30;;;;;;;12.38;6.20;;;;;;;36.68;32.04;99371.34;10374685;28;20042;-71
2022/08/17 11:42:15;;;;;;;15.00;5.78;;;;;;;37.39;31.91;99479.78;10375288;28;20135;-71
2022/08/17 11:53:05;;;;;;;15.15;5.95;;;;;;;38.06;30.89;99497.94;10374343;28;20030;-71
2022/08/17 11:58:28;;;;;;;13.90;5.90;;;;;;;38.41;30.95;99483.78;10374424;28;20046;-71
2022/08/17 12:03:35;;;;;;;16.15;5.88;;;;;;;38.38;30.21;99492.81;10373142;28;20042;-70
2022/08/17 12:08:42;;;;;;;12.55;5.82;;;;;;;38.42;29.91;99487.38;10373134;28;20080;-70
2022/08/17 12:13:48;;;;;;;16.85;6.07;;;;;;;38.24;29.77;99417.75;10373135;28;20040;-71
2022/08/17 12:18:57;;;;;;;17.95;6.15;;;;;;;38.72;29.97;99474.25;10371968;28;20046;-70
2022/08/17 12:24:03;;;;;;;60.33;10.35;;;;;;;38.75;30.59;99486.59;10372259;28;20046;-71
2022/08/17 12:29:13;;;;;;;14.57;6.20;;;;;;;38.56;29.28;99474.47;10365446;28;20045;-71
2022/08/17 12:34:27;;;;;;;34.97;7.50;;;;;;;38.47;30.05;99425.97;10341169;28;20091;-69
2022/08/17 12:39:29;;;;;;;16.52;6.18;;;;;;;38.76;29.42;99460.41;10357199;28;20525;-72
2022/08/17 12:44:36;;;;;;;11.52;5.97;;;;;;;38.81;29.71;99462.88;10354482;28;20034;-69
2022/08/17 12:49:40;;;;;;;17.30;6.07;;;;;;;38.06;29.57;99337.91;10348313;28;20111;-70
2022/08/17 12:54:58;;;;;;;19.52;6.53;;;;;;;38.75;29.09;99436.63;10348176;28;20034;-71
2022/08/17 13:00:07;;;;;;;14.00;5.88;;;;;;;38.89;28.70;99447.91;10347661;28;20056;-69
2022/08/17 13:05:34;;;;;;;16.33;5.85;;;;;;;38.61;29.66;99426.16;10347011;28;20045;-70
2022/08/17 13:10:36;;;;;;;18.27;6.63;;;;;;;38.76;28.84;99438.22;10346862;28;20077;-69
2022/08/17 13:15:42;;;;;;;15.85;5.97;;;;;;;38.83;28.77;99443.81;10345575;28;20493;-71
2022/08/17 13:20:52;;;;;;;29.35;6.05;;;;;;;38.66;30.11;99423.03;10347499;28;20038;-70
2022/08/17 13:25:54;;;;;;;16.63;6.20;;;;;;;38.47;29.60;99407.38;10347972;28;20054;-68
2022/08/17 13:31:26;;;;;;;16.02;5.90;;;;;;;38.57;29.53;99430.88;10351016;28;20441;-69
2022/08/17 13:36:29;;;;;;;14.65;5.82;;;;;;;38.48;29.54;99413.72;10355321;28;20556;-70
2022/08/17 13:41:36;;;;;;;30.00;6.22;;;;;;;38.51;29.64;99424.84;10354160;28;20039;-69
2022/08/17 13:46:37;;;;;;;12.95;6.10;;;;;;;38.05;29.29;99357.69;10347570;28;20042;-70
2022/08/17 13:51:43;;;;;;;15.23;6.03;;;;;;;38.60;29.80;99424.56;10362178;28;20057;-69
2022/08/17 13:56:49;;;;;;;20.52;6.55;;;;;;;38.22;29.69;99373.75;10355326;28;20038;-69
2022/08/17 14:01:50;;;;;;;12.00;5.75;;;;;;;37.72;29.38;99297.44;10357205;28;20064;-70
2022/08/17 14:07:18;;;;;;;69.90;9.13;;;;;;;38.68;30.27;99423.47;10355925;28;20034;-70
2022/08/17 14:12:23;;;;;;;13.00;5.70;;;;;;;38.50;29.82;99414.13;10364463;28;20054;-70
2022/08/17 14:17:27;;;;;;;13.85;5.88;;;;;;;38.23;30.10;99408.63;10378633;28;20096;-70
2022/08/17 14:22:32;;;;;;;20.77;5.85;;;;;;;38.17;29.90;99420.44;10377743;28;20100;-70
2022/08/17 14:27:33;;;;;;;24.10;6.18;;;;;;;38.08;30.32;99410.44;10377626;28;20064;-70
2022/08/17 14:32:35;;;;;;;21.87;5.60;;;;;;;37.98;30.57;99411.09;10378220;28;20057;-71
2022/08/17 14:37:36;;;;;;;14.43;5.82;;;;;;;37.49;30.72;99334.38;10377483;28;20052;-72
2022/08/17 14:42:39;;;;;;;14.20;6.00;;;;;;;37.49;30.50;99350.19;10375408;28;20068;-71
2022/08/17 14:47:40;;;;;;;35.33;7.38;;;;;;;37.70;31.41;99411.47;10377161;28;20532;-71
2022/08/17 14:52:41;;;;;;;30.17;6.50;;;;;;;37.53;31.35;99411.97;10376162;28;20044;-72
2022/08/17 14:57:43;;;;;;;12.10;5.97;;;;;;;37.29;31.67;99400.09;10364852;28;20050;-71
2022/08/17 15:02:49;;;;;;;31.70;7.95;;;;;;;36.77;31.75;99348.97;10375383;28;20053;-72
2022/08/17 15:07:52;;;;;;;29.38;6.75;;;;;;;36.99;32.49;99416.56;10374843;28;20054;-72
2022/08/17 15:12:53;;;;;;;20.67;6.35;;;;;;;36.60;32.97;99404.78;10375944;28;20053;-72
2022/08/17 15:17:54;;;;;;;24.87;6.70;;;;;;;36.06;33.55;99367.72;10376041;28;20066;-72
2022/08/17 15:22:57;;;;;;;22.27;7.35;;;;;;;36.03;34.27;99420.94;10374495;28;20148;-71
2022/08/17 15:27:59;;;;;;;26.27;6.82;;;;;;;35.82;34.72;99433.09;10375274;28;20065;-72
2022/08/17 15:33:00;;;;;;;;;;;;;;;35.80;34.55;99434.63;10376102;28;20390;-72
2022/08/17 15:38:04;;;;;;;24.30;6.57;;;;;;;34.47;36.59;99307.06;10375190;28;20439;-72
2022/08/17 15:43:07;;;;;;;19.23;7.55;;;;;;;35.06;37.25;99434.34;10374332;28;20038;-72
2022/08/17 15:48:08;;;;;;;24.58;8.15;;;;;;;34.48;37.98;99377.56;10375327;28;20465;-72
2022/08/17 15:53:09;;;;;;;24.17;6.55;;;;;;;34.67;38.58;99434.88;10375062;28;20128;-71
2022/08/17 15:58:10;;;;;;;23.80;6.63;;;;;;;34.47;39.36;99436.66;10374400;28;20132;-71
2022/08/17 16:03:13;;;;;;;28.55;7.10;;;;;;;34.05;40.40;99414.16;10374263;28;20137;-71
2022/08/17 16:08:14;;;;;;;29.40;7.63;;;;;;;34.07;40.83;99444.91;10374202;28;20042;-71
2022/08/17 16:13:17;;;;;;;20.17;6.88;;;;;;;33.89;40.92;99443.53;10373429;28;20038;-71
2022/08/17 16:18:17;;;;;;;;;;;;;;;33.91;40.43;99447.53;10372330;28;20517;-70
2022/08/17 16:23:18;;;;;;;31.55;6.78;;;;;;;33.45;42.60;99449.59;10372922;28;19917;-70
2022/08/17 16:28:19;;;;;;;45.53;8.77;;;;;;;33.10;43.90;99427.97;10373446;28;20099;-70
2022/08/17 16:33:20;;;;;;;15.40;7.47;;;;;;;32.93;43.18;99428.94;10372169;28;20049;-70
2022/08/17 16:38:21;;;;;;;41.15;8.80;;;;;;;32.68;43.98;99419.00;10372847;28;20049;-70
2022/08/17 16:43:22;;;;;;;29.58;7.97;;;;;;;32.57;44.79;99437.84;10372440;28;20068;-70
2022/08/17 16:48:24;;;;;;;32.13;8.57;;;;;;;32.56;45.68;99472.00;10372717;28;20111;-70
2022/08/17 16:53:25;;;;;;;28.20;7.72;;;;;;;32.24;46.42;99457.81;10371986;28;20034;-70
2022/08/17 16:58:26;;;;;;;32.92;21.23;;;;;;;31.72;46.69;99389.47;10372856;28;20521;-70
2022/08/17 17:03:27;;;;;;;27.42;13.35;;;;;;;32.24;45.88;99466.06;10372246;28;20049;-70
2022/08/17 17:08:42;;;;;;;20.63;8.40;;;;;;;32.14;45.35;99443.69;10372741;28;20046;-70
2022/08/17 17:13:55;;;;;;;18.77;6.88;;;;;;;32.36;44.93;99478.25;10371729;28;20053;-70
2022/08/17 17:19:26;;;;;;;34.75;8.35;;;;;;;32.40;45.76;99476.44;10372181;28;20064;-73
2022/08/17 17:24:34;;;;;;;34.72;7.30;;;;;;;32.18;45.71;99467.41;10370434;28;20069;-73
2022/08/17 17:29:58;;;;;;;20.42;6.35;;;;;;;32.14;45.42;99482.94;10376988;28;20066;-70
2022/08/17 17:35:05;;;;;;;19.27;6.65;;;;;;;31.89;45.65;99481.94;10412608;28;20409;-69
2022/08/17 17:40:21;;;;;;;15.98;6.32;;;;;;;31.79;46.79;99490.53;10412355;28;20045;-70
2022/08/17 17:45:30;;;;;;;20.98;6.25;;;;;;;31.50;47.61;99485.81;10412083;28;20528;-71
2022/08/17 17:50:50;;;;;;;19.73;6.82;;;;;;;31.25;48.41;99465.53;10411854;28;20045;-70
2022/08/17 17:56:05;;;;;;;17.98;7.00;;;;;;;30.93;49.64;99470.44;10412253;28;20133;-71
2022/08/17 18:01:23;;;;;;;18.25;6.45;;;;;;;30.92;51.13;99471.56;10396701;28;20049;-71
2022/08/17 18:07:03;;;;;;;13.60;5.88;;;;;;;30.46;50.52;99420.97;10370087;28;20096;-71
2022/08/17 18:12:08;;;;;;;20.27;6.55;;;;;;;30.52;50.23;99451.75;10379453;28;20070;-71
2022/08/17 18:17:09;;;;;;;18.80;6.72;;;;;;;30.57;50.68;99459.78;10375575;28;20044;-72
2022/08/17 18:22:17;;;;;;;76.63;8.65;;;;;;;30.43;52.70;99466.25;10378673;28;20053;-71
2022/08/17 18:27:30;;;;;;;24.63;6.78;;;;;;;30.35;51.04;99464.31;10375940;28;20065;-70
2022/08/17 18:32:40;;;;;;;29.48;7.18;;;;;;;30.21;52.99;99459.00;10377351;28;20044;-70
2022/08/17 18:37:48;;;;;;;19.73;7.18;;;;;;;30.12;51.68;99460.84;10377791;28;20048;-71
2022/08/17 18:43:09;;;;;;;14.90;5.90;;;;;;;30.03;51.94;99460.88;10358599;28;20046;-71
2022/08/17 18:48:27;;;;;;;15.85;5.75;;;;;;;29.88;52.10;99455.81;10353923;28;20060;-71
2022/08/17 18:53:39;;;;;;;34.78;8.50;;;;;;;29.79;54.10;99474.94;10370987;28;20099;-64
2022/08/17 18:58:40;;;;;;;70.37;11.07;;;;;;;29.57;52.44;99466.78;10376001;28;20046;-73
2022/08/17 19:03:42;;;;;;;36.05;9.25;;;;;;;29.57;52.54;99472.28;10376010;28;20038;-72
2022/08/17 19:08:43;;;;;;;43.70;8.45;;;;;;;29.38;52.79;99475.25;10375959;28;20049;-72
2022/08/17 19:13:51;;;;;;;32.80;7.90;;;;;;;29.05;54.12;99461.88;10371977;28;20034;-72
2022/08/17 19:18:52;;;;;;;22.70;7.20;;;;;;;28.99;54.33;99468.56;10368088;28;20054;-71
2022/08/17 19:24:04;;;;;;;20.40;6.22;;;;;;;28.60;56.30;99407.19;10375768;28;20497;-72
2022/08/17 19:29:18;;;;;;;24.80;6.50;;;;;;;29.00;56.99;99469.38;10375159;28;20116;-72
2022/08/17 19:34:20;;;;;;;18.55;6.60;;;;;;;28.84;56.25;99467.00;10374115;28;20076;-72
2022/08/17 19:39:26;;;;;;;30.63;6.80;;;;;;;28.80;57.38;99479.66;10373991;28;20501;-72
2022/08/17 19:44:39;;;;;;;15.63;6.03;;;;;;;28.67;56.38;99475.06;10375600;28;20437;-72
2022/08/17 19:50:02;;;;;;;28.52;6.85;;;;;;;28.54;56.98;99482.22;10374677;28;20037;-72
2022/08/17 19:55:36;;;;;;;23.55;6.68;;;;;;;28.54;57.62;99489.56;10374849;28;20050;-72
2022/08/17 20:00:45;;;;;;;22.20;8.13;;;;;;;27.61;55.02;99397.88;10364883;28;20104;-72
2022/08/17 20:05:50;;;;;;;18.98;7.07;;;;;;;28.31;53.40;99488.72;10373480;28;20045;-71
2022/08/17 20:11:06;;;;;;;18.23;6.78;;;;;;;28.43;51.71;99478.09;10374709;28;20049;-72
2022/08/17 20:16:07;;;;;;;14.50;6.18;;;;;;;28.71;50.83;99484.25;10372587;28;20052;-72
2022/08/17 20:21:41;;;;;;;16.65;6.05;;;;;;;29.07;49.59;99491.63;10373150;28;20076;-72
2022/08/17 20:27:07;;;;;;;19.10;7.10;;;;;;;29.22;48.84;99493.97;10373158;28;20132;-72
2022/08/17 20:32:23;;;;;;;16.75;6.05;;;;;;;29.28;47.68;99473.56;10373138;28;20042;-74
2022/08/17 20:37:31;;;;;;;25.40;6.32;;;;;;;29.53;46.89;99484.97;10373967;28;20048;-73
2022/08/17 20:42:33;;;;;;;16.80;6.07;;;;;;;29.61;46.43;99483.38;10373273;28;20422;-72
2022/08/17 20:47:42;;;;;;;15.88;6.80;;;;;;;29.56;46.06;99471.47;10372892;28;20038;-71
2022/08/17 20:52:51;;;;;;;79.03;10.77;;;;;;;29.68;45.94;99489.25;10372706;28;20104;-72
2022/08/17 20:57:52;;;;;;;24.10;6.93;;;;;;;29.37;46.10;99437.25;10372000;28;20414;-72
2022/08/17 21:03:22;;;;;;;12.75;6.75;;;;;;;29.70;45.79;99495.19;10372336;28;20052;-72
2022/08/17 21:08:43;;;;;;;18.50;6.80;;;;;;;28.78;46.46;99355.38;10368831;28;20042;-72
2022/08/17 21:14:16;;;;;;;23.02;6.97;;;;;;;29.53;46.79;99482.25;10371648;28;20048;-72
2022/08/17 21:19:59;;;;;;;12.73;6.53;;;;;;;29.46;47.18;99492.81;10370827;28;20033;-72
2022/08/17 21:25:14;;;;;;;18.98;6.50;;;;;;;29.10;47.80;99488.25;10346323;28;20050;-72
2022/08/17 21:30:37;;;;;;;25.73;6.75;;;;;;;28.86;48.18;99480.34;10372270;28;20054;-72
2022/08/17 21:35:49;;;;;;;17.48;6.82;;;;;;;28.53;49.08;99477.84;10371828;28;20096;-71
2022/08/17 21:40:52;;;;;;;12.65;6.55;;;;;;;28.33;49.11;99478.25;10371728;28;20132;-72
2022/08/17 21:45:58;;;;;;;;;;;;;;;28.44;48.89;99479.69;10371782;28;20080;-72
2022/08/17 21:51:09;;;;;;;14.88;6.45;;;;;;;28.16;51.35;99476.19;10374236;28;20381;-72
2022/08/17 21:56:18;;;;;;;16.15;6.57;;;;;;;28.07;51.15;99478.84;10379510;28;20042;-72
2022/08/17 22:01:29;;;;;;;14.88;6.18;;;;;;;28.06;53.23;99477.22;10378362;28;20452;-72
2022/08/17 22:06:40;;;;;;;22.50;7.10;;;;;;;27.63;52.58;99416.66;10378219;28;20461;-72
2022/08/17 22:12:04;;;;;;;14.50;6.63;;;;;;;28.01;52.66;99473.78;10377922;28;20037;-72
2022/08/17 22:17:19;;;;;;;25.98;7.07;;;;;;;27.92;53.79;99473.69;10377901;28;20073;-72
2022/08/17 22:22:31;;;;;;;22.65;6.70;;;;;;;27.85;53.58;99470.53;10378300;28;20048;-72
2022/08/17 22:27:55;;;;;;;13.52;5.93;;;;;;;27.37;53.75;99414.44;10378496;28;20140;-72
2022/08/17 22:32:57;;;;;;;21.20;7.00;;;;;;;27.42;53.33;99449.00;10378497;28;20049;-72
2022/08/17 22:38:17;;;;;;;23.55;7.75;;;;;;;27.61;54.26;99474.28;10377179;28;20041;-72
2022/08/17 22:43:22;;;;;;;29.55;6.85;;;;;;;27.50;54.29;99475.56;10376658;28;20477;-72
2022/08/17 22:48:26;;;;;;;27.25;7.13;;;;;;;27.06;54.59;99422.34;10377335;28;20046;-72
2022/08/17 23:04:36;;;;;;;22.70;7.57;;;;;;;27.14;55.18;99448.91;10301910;28;20053;-72
2022/08/17 23:09:38;;;;;;;21.42;7.07;;;;;;;27.20;54.73;99466.84;10376274;28;20037;-72
2022/08/17 23:14:41;;;;;;;28.65;7.65;;;;;;;26.68;54.84;99400.63;10376269;28;20513;-72
2022/08/17 23:19:42;;;;;;;29.52;6.78;;;;;;;27.01;54.41;99476.94;10375531;28;20053;-72
2022/08/17 23:24:47;;;;;;;25.63;6.88;;;;;;;26.80;55.81;99465.56;10376006;28;20410;-73
2022/08/17 23:29:49;;;;;;;17.98;6.63;;;;;;;26.62;55.23;99468.03;10375659;28;20077;-72
2022/08/17 23:34:50;;;;;;;20.38;7.13;;;;;;;26.12;55.30;99413.16;10374908;28;20045;-72
2022/08/17 23:39:51;;;;;;;23.17;7.30;;;;;;;25.65;56.30;99327.78;10375302;28;20045;-72
2022/08/17 23:44:51;;;;;;;18.70;6.50;;;;;;;26.04;56.21;99404.84;10374616;28;20449;-72
2022/08/17 23:49:52;;;;;;;21.48;6.97;;;;;;;25.80;57.47;99416.56;10375884;28;20065;-72
2022/08/17 23:54:54;;;;;;;26.92;7.25;;;;;;;25.66;58.01;99393.88;10374573;28;20433;-72
2022/08/17 23:59:55;;;;;;;16.55;6.57;;;;;;;26.12;58.16;99475.78;10374767;28;20046;-72
